createdAt,value
2019-05-29T00:00:12.910Z,17.20
2019-05-29T00:02:42.935Z,17.20
2019-05-29T00:05:14.265Z,17.20
2019-05-29T00:07:44.716Z,17.20
2019-05-29T00:10:15.121Z,17.20
2019-05-29T00:12:45.497Z,17.20
2019-05-29T00:15:18.744Z,17.20
2019-05-29T00:17:49.069Z,17.20
2019-05-29T00:20:19.595Z,17.20
2019-05-29T00:22:49.905Z,17.20
2019-05-29T00:25:20.285Z,17.20
2019-05-29T00:27:50.674Z,17.20
2019-05-29T00:30:21.112Z,17.20
2019-05-29T00:32:51.992Z,17.20
2019-05-29T00:35:22.365Z,17.20
2019-05-29T00:37:52.761Z,17.20
2019-05-29T00:40:23.195Z,17.20
2019-05-29T00:42:53.473Z,17.20
2019-05-29T00:45:25.420Z,17.20
2019-05-29T00:47:55.729Z,17.20
2019-05-29T00:50:26.089Z,17.20
2019-05-29T00:52:57.697Z,17.20
2019-05-29T00:55:28.031Z,17.20
2019-05-29T00:57:58.367Z,17.20
2019-05-29T01:00:28.687Z,17.20
2019-05-29T01:02:59.050Z,17.20
2019-05-29T01:05:29.362Z,17.20
2019-05-29T01:07:59.727Z,17.20
2019-05-29T01:10:30.014Z,17.20
2019-05-29T01:13:00.457Z,17.20
2019-05-29T01:15:30.752Z,17.20
2019-05-29T01:18:01.095Z,17.10
2019-05-29T01:20:31.403Z,17.20
2019-05-29T01:23:01.746Z,17.10
2019-05-29T01:25:32.054Z,17.10
2019-05-29T01:28:02.461Z,17.10
2019-05-29T01:30:32.750Z,17.10
2019-05-29T01:33:03.110Z,17.10
2019-05-29T01:35:33.541Z,17.10
2019-05-29T01:38:03.854Z,17.10
2019-05-29T01:40:34.165Z,17.00
2019-05-29T01:43:04.521Z,17.00
2019-05-29T01:45:34.867Z,16.90
2019-05-29T01:48:05.193Z,16.90
2019-05-29T01:50:36.941Z,16.90
2019-05-29T01:53:07.580Z,16.80
2019-05-29T01:55:38.294Z,16.80
2019-05-29T01:58:08.593Z,16.70
2019-05-29T02:00:38.945Z,16.60
2019-05-29T02:03:09.239Z,16.60
2019-05-29T02:05:39.557Z,16.60
2019-05-29T02:08:09.863Z,16.60
2019-05-29T02:10:40.247Z,16.50
2019-05-29T02:13:10.577Z,16.50
2019-05-29T02:15:40.909Z,16.40
2019-05-29T02:18:11.195Z,16.40
2019-05-29T02:20:41.541Z,16.30
2019-05-29T02:23:11.943Z,16.20
2019-05-29T02:25:42.193Z,16.20
2019-05-29T02:28:12.573Z,16.20
2019-05-29T02:30:42.858Z,16.10
2019-05-29T02:33:13.214Z,16.00
2019-05-29T02:35:43.517Z,15.90
2019-05-29T02:38:13.882Z,15.90
2019-05-29T02:40:44.157Z,15.90
2019-05-29T02:43:14.520Z,15.80
2019-05-29T02:45:54.165Z,15.70
2019-05-29T02:48:16.797Z,15.70
2019-05-29T02:50:47.151Z,15.70
2019-05-29T02:53:17.522Z,15.60
2019-05-29T02:55:47.865Z,15.60
2019-05-29T02:58:18.589Z,15.60
2019-05-29T03:00:53.550Z,15.60
2019-05-29T03:03:26.749Z,15.50
2019-05-29T03:05:58.120Z,15.40
2019-05-29T03:08:31.219Z,15.30
2019-05-29T03:11:00.403Z,15.30
2019-05-29T03:13:31.747Z,15.30
2019-05-29T03:16:12.404Z,15.20
2019-05-29T03:18:35.106Z,15.20
2019-05-29T03:21:05.669Z,15.10
2019-05-29T03:23:36.481Z,15.00
2019-05-29T03:26:06.998Z,14.90
2019-05-29T03:28:38.279Z,14.90
2019-05-29T03:31:09.458Z,14.90
2019-05-29T03:33:49.031Z,14.90
2019-05-29T03:36:12.806Z,14.80
2019-05-29T03:38:43.146Z,14.80
2019-05-29T03:41:13.435Z,14.70
2019-05-29T03:43:43.759Z,14.60
2019-05-29T03:46:30.143Z,14.50
2019-05-29T03:48:46.022Z,14.50
2019-05-29T03:51:16.354Z,14.50
2019-05-29T03:53:47.539Z,14.50
2019-05-29T03:56:17.875Z,14.40
2019-05-29T03:58:48.277Z,14.40
2019-05-29T04:01:18.597Z,14.40
2019-05-29T04:03:50.650Z,14.40
2019-05-29T04:06:22.658Z,14.40
2019-05-29T04:08:52.970Z,14.40
2019-05-29T04:11:23.268Z,14.40
2019-05-29T04:13:53.659Z,14.40
2019-05-29T04:16:24.963Z,14.30
2019-05-29T04:18:55.880Z,14.30
2019-05-29T04:21:27.858Z,14.30
2019-05-29T04:24:00.276Z,14.30
2019-05-29T04:26:33.941Z,14.30
2019-05-29T04:29:04.861Z,14.20
2019-05-29T04:31:36.559Z,14.20
2019-05-29T04:34:07.089Z,14.10
2019-05-29T04:36:38.905Z,14.10
2019-05-29T04:39:09.497Z,14.00
2019-05-29T04:41:39.949Z,14.00
2019-05-29T04:44:10.237Z,14.00
2019-05-29T04:46:40.804Z,14.00
2019-05-29T04:49:11.077Z,14.00
2019-05-29T04:51:41.451Z,14.00
2019-05-29T04:54:12.874Z,14.10
2019-05-29T04:56:43.424Z,14.00
2019-05-29T04:59:13.783Z,14.00
2019-05-29T05:01:44.093Z,14.00
2019-05-29T05:04:14.470Z,13.90
2019-05-29T05:06:44.833Z,13.90
2019-05-29T05:09:15.170Z,13.80
2019-05-29T05:11:45.496Z,13.80
2019-05-29T05:14:15.861Z,13.70
2019-05-29T05:16:47.118Z,13.70
2019-05-29T05:19:17.438Z,13.80
2019-05-29T05:21:47.785Z,13.70
2019-05-29T05:24:18.435Z,13.70
2019-05-29T05:26:49.673Z,13.80
2019-05-29T05:29:19.943Z,13.70
2019-05-29T05:31:50.317Z,13.70
2019-05-29T05:34:20.670Z,13.70
2019-05-29T05:36:51.945Z,13.70
2019-05-29T05:39:22.699Z,13.70
2019-05-29T05:41:53.465Z,13.60
2019-05-29T05:44:23.772Z,13.50
2019-05-29T05:46:54.203Z,13.60
2019-05-29T05:49:24.500Z,13.60
2019-05-29T05:51:54.818Z,13.60
2019-05-29T05:54:27.389Z,13.60
2019-05-29T05:56:57.742Z,13.60
2019-05-29T05:59:28.026Z,13.60
2019-05-29T06:01:58.363Z,13.60
2019-05-29T06:04:28.647Z,13.60
2019-05-29T06:06:58.985Z,13.60
2019-05-29T06:09:29.320Z,13.50
2019-05-29T06:11:59.633Z,13.50
2019-05-29T06:14:30.057Z,13.50
2019-05-29T06:17:00.367Z,13.50
2019-05-29T06:19:30.745Z,13.50
2019-05-29T06:22:01.133Z,13.60
2019-05-29T06:24:33.375Z,13.60
2019-05-29T06:27:03.863Z,13.60
2019-05-29T06:29:35.229Z,13.60
2019-05-29T06:32:05.616Z,13.60
2019-05-29T06:34:35.990Z,13.60
2019-05-29T06:37:06.417Z,13.60
2019-05-29T06:39:37.666Z,13.60
2019-05-29T06:42:08.015Z,13.70
2019-05-29T06:44:39.837Z,13.70
2019-05-29T06:47:10.308Z,13.60
2019-05-29T06:49:40.624Z,13.60
2019-05-29T06:52:11.017Z,13.60
2019-05-29T06:54:41.998Z,13.60
2019-05-29T06:57:13.603Z,13.60
2019-05-29T06:59:44.733Z,13.60
2019-05-29T07:02:15.142Z,13.60
2019-05-29T07:04:46.559Z,13.50
2019-05-29T07:07:17.402Z,13.50
2019-05-29T07:09:47.693Z,13.50
2019-05-29T07:12:18.038Z,13.50
2019-05-29T07:14:50.099Z,13.50
2019-05-29T07:17:20.438Z,13.50
2019-05-29T07:20:02.808Z,13.50
2019-05-29T07:22:22.719Z,13.50
2019-05-29T07:24:53.025Z,13.50
2019-05-29T07:27:25.017Z,13.50
2019-05-29T07:29:55.369Z,13.50
2019-05-29T07:32:25.686Z,13.50
2019-05-29T07:35:03.091Z,13.50
2019-05-29T07:37:28.118Z,13.50
2019-05-29T07:39:58.507Z,13.50
2019-05-29T07:42:28.819Z,13.50
2019-05-29T07:44:59.149Z,13.60
2019-05-29T07:47:29.454Z,13.60
2019-05-29T07:50:00.864Z,13.50
2019-05-29T07:52:31.275Z,13.30
2019-05-29T07:55:01.714Z,13.30
2019-05-29T07:57:33.572Z,13.30
2019-05-29T08:00:04.271Z,13.20
2019-05-29T08:02:34.782Z,13.20
2019-05-29T08:05:05.838Z,13.20
2019-05-29T08:07:36.180Z,13.10
2019-05-29T08:10:07.317Z,13.20
2019-05-29T08:12:41.675Z,13.10
2019-05-29T08:15:10.132Z,13.10
2019-05-29T08:17:41.904Z,13.10
2019-05-29T08:20:12.558Z,13.00
2019-05-29T08:22:44.407Z,13.00
2019-05-29T08:25:15.124Z,13.00
2019-05-29T08:27:49.141Z,13.10
2019-05-29T08:30:19.793Z,13.10
2019-05-29T08:32:51.157Z,13.20
2019-05-29T08:35:21.657Z,13.30
2019-05-29T08:37:52.353Z,13.40
2019-05-29T08:40:22.677Z,13.50
2019-05-29T08:42:53.026Z,13.70
2019-05-29T08:45:23.320Z,13.80
2019-05-29T08:47:53.710Z,13.80
2019-05-29T08:50:24.005Z,13.90
2019-05-29T08:52:54.369Z,13.90
2019-05-29T08:55:24.822Z,14.00
2019-05-29T08:57:55.605Z,13.90
2019-05-29T09:00:26.003Z,13.90
2019-05-29T09:02:56.450Z,13.90
2019-05-29T09:05:26.733Z,13.90
2019-05-29T09:07:57.150Z,13.90
2019-05-29T09:10:27.496Z,13.90
2019-05-29T09:13:04.699Z,13.90
2019-05-29T09:15:29.961Z,13.90
2019-05-29T09:18:00.265Z,13.80
2019-05-29T09:20:50.252Z,13.80
2019-05-29T09:23:02.533Z,13.80
2019-05-29T09:25:32.903Z,14.00
2019-05-29T09:28:14.009Z,14.10
2019-05-29T09:30:45.004Z,14.30
2019-05-29T09:33:18.707Z,14.30
2019-05-29T09:35:48.711Z,14.30
2019-05-29T09:38:19.003Z,14.30
2019-05-29T09:40:52.611Z,14.30
2019-05-29T09:43:26.435Z,14.40
2019-05-29T09:45:53.395Z,14.50
2019-05-29T09:48:26.948Z,14.60
2019-05-29T09:50:55.598Z,14.70
2019-05-29T09:53:25.967Z,14.90
2019-05-29T09:55:57.826Z,15.00
2019-05-29T09:58:28.409Z,15.10
2019-05-29T10:01:20.992Z,15.20
2019-05-29T10:03:31.978Z,15.20
2019-05-29T10:06:04.075Z,15.30
2019-05-29T10:08:34.253Z,15.20
2019-05-29T10:11:10.366Z,15.20
2019-05-29T10:13:37.728Z,15.20
2019-05-29T10:16:08.137Z,15.20
2019-05-29T10:18:38.441Z,15.30
2019-05-29T10:21:08.803Z,15.30
2019-05-29T10:23:39.107Z,15.40
2019-05-29T10:26:09.465Z,15.30
2019-05-29T10:28:55.855Z,15.40
2019-05-29T10:31:11.903Z,15.40
2019-05-29T10:33:42.513Z,15.30
2019-05-29T10:36:14.005Z,15.30
2019-05-29T10:38:46.520Z,15.30
2019-05-29T10:41:18.165Z,15.20
2019-05-29T10:43:49.145Z,15.20
2019-05-29T10:46:19.619Z,15.10
2019-05-29T10:48:55.977Z,15.20
2019-05-29T10:51:24.517Z,15.30
2019-05-29T10:53:57.825Z,15.40
2019-05-29T10:56:26.771Z,15.50
2019-05-29T10:58:59.810Z,15.70
2019-05-29T11:01:29.442Z,15.80
2019-05-29T11:03:59.804Z,15.90
2019-05-29T11:06:30.176Z,16.00
2019-05-29T11:09:00.476Z,16.10
2019-05-29T11:11:30.848Z,16.20
2019-05-29T11:14:01.190Z,16.20
2019-05-29T11:16:31.574Z,16.20
2019-05-29T11:19:01.936Z,16.20
2019-05-29T11:21:32.293Z,16.20
2019-05-29T11:24:05.714Z,16.20
2019-05-29T11:26:36.737Z,16.20
2019-05-29T11:29:07.085Z,16.20
2019-05-29T11:31:37.461Z,16.20
2019-05-29T11:34:11.256Z,16.20
2019-05-29T11:36:41.629Z,16.10
2019-05-29T11:39:12.179Z,16.10
2019-05-29T11:41:42.598Z,16.20
2019-05-29T11:44:12.941Z,16.30
2019-05-29T11:46:43.306Z,16.40
2019-05-29T11:49:14.849Z,16.70
2019-05-29T11:51:45.234Z,17.10
2019-05-29T11:54:15.570Z,17.50
2019-05-29T11:56:45.923Z,17.70
2019-05-29T11:59:16.220Z,17.90
2019-05-29T12:01:50.717Z,18.10
2019-05-29T12:04:26.477Z,18.30
2019-05-29T12:06:53.217Z,18.50
2019-05-29T12:09:32.929Z,18.50
2019-05-29T12:11:56.169Z,18.50
2019-05-29T12:14:26.577Z,18.40
2019-05-29T12:16:58.213Z,18.40
2019-05-29T12:19:29.738Z,18.40
2019-05-29T12:22:00.559Z,18.50
2019-05-29T12:24:30.908Z,18.60
2019-05-29T12:27:02.577Z,18.80
2019-05-29T12:29:34.454Z,19.00
2019-05-29T12:32:09.366Z,19.10
2019-05-29T12:34:36.721Z,19.30
2019-05-29T12:37:07.076Z,19.50
2019-05-29T12:39:38.091Z,19.70
2019-05-29T12:42:08.384Z,19.70
2019-05-29T12:44:38.700Z,19.90
2019-05-29T12:47:09.004Z,20.10
2019-05-29T12:49:39.306Z,20.10
2019-05-29T12:52:10.155Z,20.20
2019-05-29T12:54:40.607Z,20.20
2019-05-29T12:57:10.954Z,20.20
2019-05-29T12:59:43.829Z,20.20
2019-05-29T13:02:15.734Z,20.20
2019-05-29T13:05:06.975Z,20.30
2019-05-29T13:07:18.040Z,20.40
2019-05-29T13:09:48.391Z,20.50
2019-05-29T13:12:18.721Z,20.50
2019-05-29T13:14:49.021Z,20.50
2019-05-29T13:17:19.433Z,20.40
2019-05-29T13:19:49.738Z,20.20
2019-05-29T13:22:20.073Z,20.10
2019-05-29T13:24:52.735Z,19.90
2019-05-29T13:27:22.337Z,19.70
2019-05-29T13:29:56.436Z,19.70
2019-05-29T13:32:24.617Z,19.70
2019-05-29T13:34:55.814Z,19.60
2019-05-29T13:37:26.171Z,19.50
2019-05-29T13:39:56.551Z,19.50
2019-05-29T13:42:26.830Z,19.40
2019-05-29T13:45:17.806Z,19.40
2019-05-29T13:47:41.079Z,19.40
2019-05-29T13:50:13.246Z,19.40
2019-05-29T13:52:43.621Z,19.40
2019-05-29T13:55:14.294Z,19.40
2019-05-29T13:57:44.670Z,19.30
2019-05-29T14:00:34.290Z,19.40
2019-05-29T14:02:48.856Z,19.40
2019-05-29T14:05:19.354Z,19.40
2019-05-29T14:07:49.689Z,19.40
2019-05-29T14:10:20.501Z,19.40
2019-05-29T14:12:51.044Z,19.40
2019-05-29T14:15:21.627Z,19.30
2019-05-29T14:17:52.014Z,19.30
2019-05-29T14:20:22.402Z,19.30
2019-05-29T14:22:53.846Z,19.20
2019-05-29T14:25:24.217Z,19.10
2019-05-29T14:27:54.587Z,19.00
2019-05-29T14:30:25.486Z,18.90
2019-05-29T14:32:57.361Z,18.80
2019-05-29T14:35:27.661Z,18.70
2019-05-29T14:37:58.057Z,18.70
2019-05-29T14:40:28.365Z,18.70
2019-05-29T14:42:59.050Z,18.80
2019-05-29T14:45:29.300Z,18.90
2019-05-29T14:47:59.628Z,19.10
2019-05-29T14:50:30.001Z,19.10
2019-05-29T14:53:00.724Z,19.20
2019-05-29T14:55:31.078Z,19.20
2019-05-29T14:58:03.721Z,19.20
2019-05-29T15:00:34.405Z,19.20
2019-05-29T15:03:07.396Z,19.10
2019-05-29T15:05:39.071Z,19.00
2019-05-29T15:08:10.085Z,18.80
2019-05-29T15:10:40.534Z,18.80
2019-05-29T15:13:11.590Z,18.80
2019-05-29T15:15:42.845Z,18.80
2019-05-29T15:18:17.331Z,18.80
2019-05-29T15:20:45.207Z,18.80
2019-05-29T15:23:15.864Z,18.70
2019-05-29T15:25:49.473Z,18.70
2019-05-29T15:28:19.864Z,18.70
2019-05-29T15:30:50.273Z,18.60
2019-05-29T15:33:22.109Z,18.50
2019-05-29T15:35:52.443Z,18.50
2019-05-29T15:38:22.772Z,18.40
2019-05-29T15:40:53.109Z,18.30
2019-05-29T15:43:23.462Z,18.30
2019-05-29T15:45:53.766Z,18.30
2019-05-29T15:48:24.275Z,18.20
2019-05-29T15:50:54.655Z,18.10
2019-05-29T15:53:25.042Z,18.10
2019-05-29T15:55:55.357Z,18.00
2019-05-29T15:58:25.710Z,18.00
2019-05-29T16:00:56.092Z,17.90
2019-05-29T16:03:26.814Z,17.90
2019-05-29T16:05:57.129Z,17.90
2019-05-29T16:08:27.471Z,17.90
2019-05-29T16:10:57.822Z,17.90
2019-05-29T16:13:28.167Z,17.90
2019-05-29T16:15:58.481Z,17.80
2019-05-29T16:18:29.780Z,17.80
2019-05-29T16:21:00.117Z,17.80
2019-05-29T16:23:35.817Z,17.80
2019-05-29T16:26:02.436Z,17.80
2019-05-29T16:28:32.900Z,17.80
2019-05-29T16:31:03.277Z,17.70
2019-05-29T16:33:34.818Z,17.60
2019-05-29T16:36:05.384Z,17.70
2019-05-29T16:38:35.757Z,17.60
2019-05-29T16:41:06.127Z,17.50
2019-05-29T16:43:36.516Z,17.50
2019-05-29T16:46:06.900Z,17.50
2019-05-29T16:48:37.205Z,17.40
2019-05-29T16:51:07.593Z,17.40
2019-05-29T16:53:37.915Z,17.40
2019-05-29T16:56:08.293Z,17.30
2019-05-29T16:58:38.678Z,17.40
2019-05-29T17:01:08.996Z,17.30
2019-05-29T17:03:39.356Z,17.30
2019-05-29T17:06:09.713Z,17.30
2019-05-29T17:08:40.098Z,17.30
2019-05-29T17:11:10.896Z,17.30
2019-05-29T17:13:41.259Z,17.30
2019-05-29T17:16:11.549Z,17.20
2019-05-29T17:18:42.224Z,17.20
2019-05-29T17:21:13.020Z,17.30
2019-05-29T17:23:43.443Z,17.30
2019-05-29T17:26:14.642Z,17.30
2019-05-29T17:28:45.181Z,17.20
2019-05-29T17:31:16.798Z,17.20
2019-05-29T17:33:47.301Z,17.20
2019-05-29T17:36:18.944Z,17.20
2019-05-29T17:38:49.458Z,17.10
2019-05-29T17:41:21.189Z,17.10
2019-05-29T17:43:51.514Z,17.10
2019-05-29T17:46:21.944Z,17.10
2019-05-29T17:48:53.857Z,17.10
2019-05-29T17:51:26.045Z,17.10
2019-05-29T17:53:58.261Z,17.00
2019-05-29T17:56:36.547Z,17.00
2019-05-29T17:59:01.938Z,16.90
2019-05-29T18:01:32.511Z,16.90
2019-05-29T18:04:04.373Z,16.90
2019-05-29T18:06:35.039Z,16.90
2019-05-29T18:09:08.269Z,16.90
2019-05-29T18:11:38.808Z,16.80
2019-05-29T18:14:09.249Z,16.80
2019-05-29T18:16:43.090Z,16.70
2019-05-29T18:19:13.768Z,16.70
2019-05-29T18:21:44.063Z,16.60
2019-05-29T18:24:14.503Z,16.60
2019-05-29T18:26:47.344Z,16.60
2019-05-29T18:29:17.956Z,16.50
2019-05-29T18:31:50.482Z,16.40
2019-05-29T18:34:23.372Z,16.40
2019-05-29T18:36:53.754Z,16.40
2019-05-29T18:39:24.248Z,16.30
2019-05-29T18:41:54.680Z,16.30
2019-05-29T18:44:25.060Z,16.20
2019-05-29T18:46:55.375Z,16.10
2019-05-29T18:49:26.463Z,16.00
2019-05-29T18:52:00.103Z,16.00
2019-05-29T18:54:30.041Z,15.90
2019-05-29T18:57:14.673Z,15.80
2019-05-29T18:59:32.600Z,15.80
2019-05-29T19:02:03.006Z,15.70
2019-05-29T19:04:34.608Z,15.60
2019-05-29T19:07:05.274Z,15.60
2019-05-29T19:09:35.621Z,15.50
2019-05-29T19:12:06.114Z,15.50
2019-05-29T19:14:36.473Z,15.40
2019-05-29T19:17:06.886Z,15.40
2019-05-29T19:19:37.579Z,15.30
2019-05-29T19:22:07.961Z,15.30
2019-05-29T19:24:38.328Z,15.20
2019-05-29T19:27:08.613Z,15.10
2019-05-29T19:29:39.112Z,15.00
2019-05-29T19:32:09.584Z,15.00
2019-05-29T19:34:40.278Z,14.90
2019-05-29T19:37:10.697Z,14.80
2019-05-29T19:39:41.103Z,14.70
2019-05-29T19:42:11.407Z,14.70
2019-05-29T19:44:41.820Z,14.70
2019-05-29T19:47:12.183Z,14.60
2019-05-29T19:49:42.541Z,14.50
2019-05-29T19:52:12.928Z,14.50
2019-05-29T19:54:43.384Z,14.50
2019-05-29T19:57:13.689Z,14.40
2019-05-29T19:59:44.071Z,14.30
2019-05-29T20:02:18.602Z,14.30
2019-05-29T20:04:50.300Z,14.20
2019-05-29T20:07:23.621Z,14.10
2019-05-29T20:09:53.922Z,14.10
2019-05-29T20:12:24.281Z,14.00
2019-05-29T20:14:54.594Z,14.00
2019-05-29T20:17:24.941Z,14.00
2019-05-29T20:19:55.293Z,13.90
2019-05-29T20:22:25.640Z,13.80
2019-05-29T20:24:55.975Z,13.80
2019-05-29T20:27:26.338Z,13.70
2019-05-29T20:29:56.685Z,13.60
2019-05-29T20:32:27.074Z,13.60
2019-05-29T20:34:58.576Z,13.60
2019-05-29T20:37:29.978Z,13.50
2019-05-29T20:40:08.676Z,13.50
2019-05-29T20:42:39.068Z,13.40
2019-05-29T20:45:10.646Z,13.30
2019-05-29T20:47:42.101Z,13.30
2019-05-29T20:50:13.159Z,13.30
2019-05-29T20:52:44.453Z,13.20
2019-05-29T20:55:15.801Z,13.10
2019-05-29T20:58:23.619Z,13.10
2019-05-29T21:00:40.218Z,13.10
2019-05-29T21:03:10.747Z,13.00
2019-05-29T21:05:42.787Z,13.00
2019-05-29T21:08:13.253Z,12.90
2019-05-29T21:10:43.701Z,12.90
2019-05-29T21:13:14.004Z,12.80
2019-05-29T21:15:44.347Z,12.70
2019-05-29T21:18:14.664Z,12.70
2019-05-29T21:20:44.988Z,12.70
2019-05-29T21:23:15.416Z,12.60
2019-05-29T21:25:46.748Z,12.50
2019-05-29T21:28:17.042Z,12.50
2019-05-29T21:30:47.454Z,12.50
2019-05-29T21:33:18.709Z,12.40
2019-05-29T21:35:50.322Z,12.40
2019-05-29T21:38:20.696Z,12.30
2019-05-29T21:40:51.085Z,12.30
2019-05-29T21:43:21.373Z,12.20
2019-05-29T21:45:51.739Z,12.20
2019-05-29T21:48:22.035Z,12.20
2019-05-29T21:50:52.363Z,12.10
2019-05-29T21:53:23.751Z,12.20
2019-05-29T21:55:54.103Z,12.10
2019-05-29T21:58:24.430Z,12.00
2019-05-29T22:00:54.797Z,12.00
2019-05-29T22:03:26.776Z,12.00
2019-05-29T22:05:58.040Z,12.00
2019-05-29T22:08:28.366Z,11.90
2019-05-29T22:10:59.601Z,11.80
2019-05-29T22:13:39.139Z,11.80
2019-05-29T22:16:09.329Z,11.80
2019-05-29T22:18:39.698Z,11.70
2019-05-29T22:21:10.098Z,11.70
2019-05-29T22:23:40.434Z,11.70
2019-05-29T22:26:10.733Z,11.60
2019-05-29T22:28:41.455Z,11.60
2019-05-29T22:31:11.795Z,11.50
2019-05-29T22:33:42.209Z,11.50
2019-05-29T22:36:13.902Z,11.50
2019-05-29T22:38:44.266Z,11.50
2019-05-29T22:41:15.561Z,11.40
2019-05-29T22:43:45.942Z,11.40
2019-05-29T22:46:16.255Z,11.20
2019-05-29T22:48:46.930Z,11.30
2019-05-29T22:51:18.345Z,11.20
2019-05-29T22:53:48.748Z,11.20
2019-05-29T22:56:19.051Z,11.10
2019-05-29T22:58:52.005Z,11.10
2019-05-29T23:01:23.230Z,11.10
2019-05-29T23:03:54.209Z,11.00
2019-05-29T23:06:26.887Z,10.90
2019-05-29T23:08:58.398Z,10.90
2019-05-29T23:11:28.969Z,10.80
2019-05-29T23:14:00.345Z,10.80
2019-05-29T23:16:30.853Z,10.80
2019-05-29T23:19:02.656Z,10.70
2019-05-29T23:21:33.224Z,10.70
2019-05-29T23:24:03.794Z,10.60
2019-05-29T23:26:34.115Z,10.60
2019-05-29T23:29:04.489Z,10.50
2019-05-29T23:31:34.811Z,10.50
2019-05-29T23:34:05.253Z,10.40
2019-05-29T23:36:36.733Z,10.40
2019-05-29T23:39:09.331Z,10.40
2019-05-29T23:41:39.581Z,10.40
2019-05-29T23:44:09.883Z,10.30
2019-05-29T23:46:40.510Z,10.30
2019-05-29T23:49:10.863Z,10.30
2019-05-29T23:51:41.193Z,10.30
2019-05-29T23:54:11.549Z,10.20
2019-05-29T23:56:41.852Z,10.20
2019-05-29T23:59:12.185Z,10.20
